sensor_id;sensor_type;location;lat;lon;timestamp;P1;durP1;ratioP1;P2;durP2;ratioP2
52922;SDS011;38796;42.702;23.306;2023-01-01T00:01:05;106.85;;;58.72;;
52922;SDS011;38796;42.702;23.306;2023-01-01T00:03:03;99.55;;;51.22;;
52922;SDS011;38796;42.702;23.306;2023-01-01T00:05:02;99.50;;;47.22;;
52922;SDS011;38796;42.702;23.306;2023-01-01T00:07:01;105.70;;;51.10;;
52922;SDS011;38796;42.702;23.306;2023-01-01T00:08:59;93.80;;;46.63;;
52922;SDS011;38796;42.702;23.306;2023-01-01T00:11:15;85.38;;;47.88;;
52922;SDS011;38796;42.702;23.306;2023-01-01T00:13:13;105.93;;;50.65;;
52922;SDS011;38796;42.702;23.306;2023-01-01T00:15:13;86.50;;;45.88;;
52922;SDS011;38796;42.702;23.306;2023-01-01T00:17:11;99.47;;;53.35;;
52922;SDS011;38796;42.702;23.306;2023-01-01T00:19:10;116.70;;;51.60;;
52922;SDS011;38796;42.702;23.306;2023-01-01T00:21:09;85.72;;;49.28;;
52922;SDS011;38796;42.702;23.306;2023-01-01T00:23:09;94.40;;;46.40;;
52922;SDS011;38796;42.702;23.306;2023-01-01T00:25:09;101.28;;;53.97;;
52922;SDS011;38796;42.702;23.306;2023-01-01T00:27:10;99.38;;;52.45;;
52922;SDS011;38796;42.702;23.306;2023-01-01T00:29:08;93.78;;;49.40;;
52922;SDS011;38796;42.702;23.306;2023-01-01T00:31:09;97.20;;;51.10;;
52922;SDS011;38796;42.702;23.306;2023-01-01T00:33:08;97.47;;;47.80;;
52922;SDS011;38796;42.702;23.306;2023-01-01T00:35:07;231.10;;;107.90;;
52922;SDS011;38796;42.702;23.306;2023-01-01T00:37:06;113.32;;;54.15;;
52922;SDS011;38796;42.702;23.306;2023-01-01T00:39:04;93.70;;;47.95;;
52922;SDS011;38796;42.702;23.306;2023-01-01T00:41:02;97.47;;;50.88;;
52922;SDS011;38796;42.702;23.306;2023-01-01T00:43:01;87.88;;;49.70;;
52922;SDS011;38796;42.702;23.306;2023-01-01T00:44:59;102.78;;;49.33;;
52922;SDS011;38796;42.702;23.306;2023-01-01T00:46:59;92.65;;;48.20;;
52922;SDS011;38796;42.702;23.306;2023-01-01T00:48:58;105.07;;;46.15;;
52922;SDS011;38796;42.702;23.306;2023-01-01T00:50:56;90.68;;;46.58;;
52922;SDS011;38796;42.702;23.306;2023-01-01T00:52:55;89.53;;;45.58;;
52922;SDS011;38796;42.702;23.306;2023-01-01T00:54:53;96.78;;;46.83;;
52922;SDS011;38796;42.702;23.306;2023-01-01T00:56:51;93.85;;;46.92;;
52922;SDS011;38796;42.702;23.306;2023-01-01T00:58:49;94.18;;;47.97;;
52922;SDS011;38796;42.702;23.306;2023-01-01T01:00:56;96.22;;;46.33;;
52922;SDS011;38796;42.702;23.306;2023-01-01T01:02:57;81.53;;;48.25;;
52922;SDS011;38796;42.702;23.306;2023-01-01T01:04:55;98.97;;;46.72;;
52922;SDS011;38796;42.702;23.306;2023-01-01T01:06:54;109.35;;;48.60;;
52922;SDS011;38796;42.702;23.306;2023-01-01T01:08:52;118.00;;;47.70;;
52922;SDS011;38796;42.702;23.306;2023-01-01T01:10:50;88.63;;;42.55;;
52922;SDS011;38796;42.702;23.306;2023-01-01T01:12:49;77.50;;;39.28;;
52922;SDS011;38796;42.702;23.306;2023-01-01T01:14:47;100.50;;;43.75;;
52922;SDS011;38796;42.702;23.306;2023-01-01T01:16:45;90.97;;;46.55;;
52922;SDS011;38796;42.702;23.306;2023-01-01T01:18:46;75.95;;;42.13;;
52922;SDS011;38796;42.702;23.306;2023-01-01T01:20:48;90.75;;;42.78;;
52922;SDS011;38796;42.702;23.306;2023-01-01T01:22:47;95.80;;;44.20;;
52922;SDS011;38796;42.702;23.306;2023-01-01T01:24:45;86.55;;;43.60;;
52922;SDS011;38796;42.702;23.306;2023-01-01T01:26:44;83.72;;;42.40;;
52922;SDS011;38796;42.702;23.306;2023-01-01T01:28:42;76.57;;;44.40;;
52922;SDS011;38796;42.702;23.306;2023-01-01T01:30:45;117.22;;;50.42;;
52922;SDS011;38796;42.702;23.306;2023-01-01T01:32:44;74.40;;;45.65;;
52922;SDS011;38796;42.702;23.306;2023-01-01T01:34:43;82.43;;;43.55;;
52922;SDS011;38796;42.702;23.306;2023-01-01T01:36:41;90.93;;;44.55;;
52922;SDS011;38796;42.702;23.306;2023-01-01T01:38:40;96.65;;;48.13;;
52922;SDS011;38796;42.702;23.306;2023-01-01T01:40:41;85.82;;;46.83;;
52922;SDS011;38796;42.702;23.306;2023-01-01T01:42:39;96.28;;;46.78;;
52922;SDS011;38796;42.702;23.306;2023-01-01T01:44:51;103.47;;;48.97;;
52922;SDS011;38796;42.702;23.306;2023-01-01T01:46:54;75.38;;;44.75;;
52922;SDS011;38796;42.702;23.306;2023-01-01T01:48:54;93.10;;;47.13;;
52922;SDS011;38796;42.702;23.306;2023-01-01T01:50:58;90.13;;;45.40;;
52922;SDS011;38796;42.702;23.306;2023-01-01T01:52:58;81.50;;;40.67;;
52922;SDS011;38796;42.702;23.306;2023-01-01T01:55:02;79.55;;;41.92;;
52922;SDS011;38796;42.702;23.306;2023-01-01T01:57:02;81.13;;;39.58;;
52922;SDS011;38796;42.702;23.306;2023-01-01T01:59:02;81.07;;;41.67;;
52922;SDS011;38796;42.702;23.306;2023-01-01T02:01:01;71.57;;;40.75;;
52922;SDS011;38796;42.702;23.306;2023-01-01T02:03:01;71.90;;;36.83;;
52922;SDS011;38796;42.702;23.306;2023-01-01T02:05:03;82.25;;;41.05;;
52922;SDS011;38796;42.702;23.306;2023-01-01T02:07:04;78.32;;;41.03;;
52922;SDS011;38796;42.702;23.306;2023-01-01T02:09:04;75.20;;;40.33;;
52922;SDS011;38796;42.702;23.306;2023-01-01T02:11:04;87.18;;;41.42;;
52922;SDS011;38796;42.702;23.306;2023-01-01T02:13:07;76.35;;;41.58;;
52922;SDS011;38796;42.702;23.306;2023-01-01T02:15:06;120.55;;;47.65;;
52922;SDS011;38796;42.702;23.306;2023-01-01T02:17:06;85.72;;;45.97;;
52922;SDS011;38796;42.702;23.306;2023-01-01T02:19:11;78.03;;;42.35;;
52922;SDS011;38796;42.702;23.306;2023-01-01T02:21:16;91.75;;;44.33;;
52922;SDS011;38796;42.702;23.306;2023-01-01T02:23:31;76.15;;;41.78;;
52922;SDS011;38796;42.702;23.306;2023-01-01T02:25:55;89.45;;;41.15;;
52922;SDS011;38796;42.702;23.306;2023-01-01T02:28:05;95.47;;;43.83;;
52922;SDS011;38796;42.702;23.306;2023-01-01T02:30:13;95.03;;;44.90;;
52922;SDS011;38796;42.702;23.306;2023-01-01T02:32:13;81.35;;;43.40;;
52922;SDS011;38796;42.702;23.306;2023-01-01T02:34:16;90.07;;;45.90;;
52922;SDS011;38796;42.702;23.306;2023-01-01T02:36:18;92.47;;;40.97;;
52922;SDS011;38796;42.702;23.306;2023-01-01T02:38:18;78.22;;;42.67;;
52922;SDS011;38796;42.702;23.306;2023-01-01T02:40:20;81.75;;;41.92;;
52922;SDS011;38796;42.702;23.306;2023-01-01T02:42:20;92.95;;;43.97;;
52922;SDS011;38796;42.702;23.306;2023-01-01T02:44:21;79.50;;;38.58;;
52922;SDS011;38796;42.702;23.306;2023-01-01T02:46:24;92.95;;;40.50;;
52922;SDS011;38796;42.702;23.306;2023-01-01T02:48:36;73.90;;;42.97;;
52922;SDS011;38796;42.702;23.306;2023-01-01T02:50:36;96.15;;;44.67;;
52922;SDS011;38796;42.702;23.306;2023-01-01T02:55:04;68.38;;;35.78;;
52922;SDS011;38796;42.702;23.306;2023-01-01T02:57:07;74.30;;;37.05;;
52922;SDS011;38796;42.702;23.306;2023-01-01T02:59:12;69.05;;;38.72;;
52922;SDS011;38796;42.702;23.306;2023-01-01T03:01:36;65.95;;;32.60;;
52922;SDS011;38796;42.702;23.306;2023-01-01T03:03:43;77.30;;;37.10;;
52922;SDS011;38796;42.702;23.306;2023-01-01T03:05:52;65.70;;;39.55;;
52922;SDS011;38796;42.702;23.306;2023-01-01T03:08:15;66.57;;;38.10;;
52922;SDS011;38796;42.702;23.306;2023-01-01T03:10:20;69.88;;;34.08;;
52922;SDS011;38796;42.702;23.306;2023-01-01T03:12:28;65.57;;;37.35;;
52922;SDS011;38796;42.702;23.306;2023-01-01T03:14:37;69.85;;;35.42;;
52922;SDS011;38796;42.702;23.306;2023-01-01T03:16:42;60.97;;;32.63;;
52922;SDS011;38796;42.702;23.306;2023-01-01T03:21:06;50.10;;;25.83;;
52922;SDS011;38796;42.702;23.306;2023-01-01T03:23:05;51.58;;;22.85;;
52922;SDS011;38796;42.702;23.306;2023-01-01T03:25:08;60.55;;;24.60;;
52922;SDS011;38796;42.702;23.306;2023-01-01T03:27:11;45.72;;;22.27;;
52922;SDS011;38796;42.702;23.306;2023-01-01T03:29:12;46.50;;;25.13;;
52922;SDS011;38796;42.702;23.306;2023-01-01T03:31:11;63.28;;;27.20;;
52922;SDS011;38796;42.702;23.306;2023-01-01T03:33:16;41.05;;;20.60;;
52922;SDS011;38796;42.702;23.306;2023-01-01T03:35:18;41.13;;;21.77;;
52922;SDS011;38796;42.702;23.306;2023-01-01T03:37:22;68.72;;;23.98;;
52922;SDS011;38796;42.702;23.306;2023-01-01T03:39:24;45.88;;;23.42;;
52922;SDS011;38796;42.702;23.306;2023-01-01T03:41:28;43.28;;;22.85;;
52922;SDS011;38796;42.702;23.306;2023-01-01T03:43:34;41.20;;;19.75;;
52922;SDS011;38796;42.702;23.306;2023-01-01T03:45:39;34.13;;;20.67;;
52922;SDS011;38796;42.702;23.306;2023-01-01T03:47:40;39.08;;;21.15;;
52922;SDS011;38796;42.702;23.306;2023-01-01T03:49:39;52.60;;;22.60;;
52922;SDS011;38796;42.702;23.306;2023-01-01T03:51:52;34.67;;;20.42;;
52922;SDS011;38796;42.702;23.306;2023-01-01T03:53:57;48.28;;;20.27;;
52922;SDS011;38796;42.702;23.306;2023-01-01T03:56:00;43.85;;;23.40;;
52922;SDS011;38796;42.702;23.306;2023-01-01T03:58:07;38.83;;;21.83;;
52922;SDS011;38796;42.702;23.306;2023-01-01T04:00:11;34.72;;;19.58;;
52922;SDS011;38796;42.702;23.306;2023-01-01T04:02:14;47.95;;;21.08;;
52922;SDS011;38796;42.702;23.306;2023-01-01T04:04:16;58.15;;;25.80;;
52922;SDS011;38796;42.702;23.306;2023-01-01T04:06:17;41.53;;;18.90;;
52922;SDS011;38796;42.702;23.306;2023-01-01T04:08:16;43.63;;;21.55;;
52922;SDS011;38796;42.702;23.306;2023-01-01T04:10:15;47.85;;;20.83;;
52922;SDS011;38796;42.702;23.306;2023-01-01T04:12:14;40.17;;;20.23;;
52922;SDS011;38796;42.702;23.306;2023-01-01T04:14:12;41.20;;;22.08;;
52922;SDS011;38796;42.702;23.306;2023-01-01T04:16:10;45.88;;;21.00;;
52922;SDS011;38796;42.702;23.306;2023-01-01T04:18:08;41.47;;;25.02;;
52922;SDS011;38796;42.702;23.306;2023-01-01T04:20:07;44.83;;;22.35;;
52922;SDS011;38796;42.702;23.306;2023-01-01T04:22:08;40.85;;;21.15;;
52922;SDS011;38796;42.702;23.306;2023-01-01T04:24:06;49.90;;;21.80;;
52922;SDS011;38796;42.702;23.306;2023-01-01T04:26:09;45.38;;;21.70;;
52922;SDS011;38796;42.702;23.306;2023-01-01T04:28:09;36.80;;;20.15;;
52922;SDS011;38796;42.702;23.306;2023-01-01T04:30:09;38.65;;;19.63;;
52922;SDS011;38796;42.702;23.306;2023-01-01T04:32:09;38.15;;;21.00;;
52922;SDS011;38796;42.702;23.306;2023-01-01T04:34:07;43.83;;;20.13;;
52922;SDS011;38796;42.702;23.306;2023-01-01T04:36:07;47.33;;;21.85;;
52922;SDS011;38796;42.702;23.306;2023-01-01T04:38:10;30.20;;;18.27;;
52922;SDS011;38796;42.702;23.306;2023-01-01T04:40:10;61.22;;;22.48;;
52922;SDS011;38796;42.702;23.306;2023-01-01T04:42:09;39.40;;;19.73;;
52922;SDS011;38796;42.702;23.306;2023-01-01T04:44:10;52.33;;;22.63;;
52922;SDS011;38796;42.702;23.306;2023-01-01T04:46:09;36.20;;;19.05;;
52922;SDS011;38796;42.702;23.306;2023-01-01T04:48:07;42.75;;;19.77;;
52922;SDS011;38796;42.702;23.306;2023-01-01T04:50:06;42.72;;;22.42;;
52922;SDS011;38796;42.702;23.306;2023-01-01T04:52:05;43.28;;;22.15;;
52922;SDS011;38796;42.702;23.306;2023-01-01T04:54:05;42.78;;;21.92;;
52922;SDS011;38796;42.702;23.306;2023-01-01T04:56:03;51.42;;;24.45;;
52922;SDS011;38796;42.702;23.306;2023-01-01T04:58:02;48.55;;;19.10;;
52922;SDS011;38796;42.702;23.306;2023-01-01T05:00:00;45.05;;;24.80;;
52922;SDS011;38796;42.702;23.306;2023-01-01T05:01:59;50.53;;;24.77;;
52922;SDS011;38796;42.702;23.306;2023-01-01T05:03:57;49.47;;;23.67;;
52922;SDS011;38796;42.702;23.306;2023-01-01T05:06:00;40.95;;;19.88;;
52922;SDS011;38796;42.702;23.306;2023-01-01T05:07:58;43.30;;;20.40;;
52922;SDS011;38796;42.702;23.306;2023-01-01T05:09:58;58.08;;;23.77;;
52922;SDS011;38796;42.702;23.306;2023-01-01T05:11:56;40.42;;;22.80;;
52922;SDS011;38796;42.702;23.306;2023-01-01T05:13:55;45.05;;;21.83;;
52922;SDS011;38796;42.702;23.306;2023-01-01T05:15:55;50.28;;;21.08;;
52922;SDS011;38796;42.702;23.306;2023-01-01T05:17:54;43.50;;;24.02;;
52922;SDS011;38796;42.702;23.306;2023-01-01T05:19:52;52.25;;;23.55;;
52922;SDS011;38796;42.702;23.306;2023-01-01T05:21:50;55.35;;;22.77;;
52922;SDS011;38796;42.702;23.306;2023-01-01T05:23:52;62.17;;;23.95;;
52922;SDS011;38796;42.702;23.306;2023-01-01T05:25:53;34.03;;;19.67;;
52922;SDS011;38796;42.702;23.306;2023-01-01T05:27:51;48.65;;;24.73;;
52922;SDS011;38796;42.702;23.306;2023-01-01T05:29:50;38.65;;;20.00;;
52922;SDS011;38796;42.702;23.306;2023-01-01T05:31:49;43.42;;;20.88;;
52922;SDS011;38796;42.702;23.306;2023-01-01T05:33:47;39.58;;;21.73;;
52922;SDS011;38796;42.702;23.306;2023-01-01T05:35:51;46.78;;;22.10;;
52922;SDS011;38796;42.702;23.306;2023-01-01T05:37:50;42.20;;;20.88;;
52922;SDS011;38796;42.702;23.306;2023-01-01T05:39:48;32.90;;;22.27;;
52922;SDS011;38796;42.702;23.306;2023-01-01T05:41:48;38.88;;;18.30;;
52922;SDS011;38796;42.702;23.306;2023-01-01T05:43:47;62.95;;;23.42;;
52922;SDS011;38796;42.702;23.306;2023-01-01T05:45:46;56.90;;;23.30;;
52922;SDS011;38796;42.702;23.306;2023-01-01T05:47:44;37.40;;;19.40;;
52922;SDS011;38796;42.702;23.306;2023-01-01T05:49:42;35.67;;;18.98;;
52922;SDS011;38796;42.702;23.306;2023-01-01T05:51:41;36.75;;;17.25;;
52922;SDS011;38796;42.702;23.306;2023-01-01T05:53:39;37.95;;;20.63;;
52922;SDS011;38796;42.702;23.306;2023-01-01T05:55:40;43.65;;;20.08;;
52922;SDS011;38796;42.702;23.306;2023-01-01T05:57:39;44.72;;;19.85;;
52922;SDS011;38796;42.702;23.306;2023-01-01T05:59:40;32.53;;;18.38;;
52922;SDS011;38796;42.702;23.306;2023-01-01T06:01:38;36.63;;;20.17;;
52922;SDS011;38796;42.702;23.306;2023-01-01T06:03:42;27.02;;;17.88;;
52922;SDS011;38796;42.702;23.306;2023-01-01T06:05:41;43.22;;;18.88;;
52922;SDS011;38796;42.702;23.306;2023-01-01T06:07:39;32.60;;;17.77;;
52922;SDS011;38796;42.702;23.306;2023-01-01T06:09:44;42.97;;;19.33;;
52922;SDS011;38796;42.702;23.306;2023-01-01T06:11:42;28.67;;;17.15;;
52922;SDS011;38796;42.702;23.306;2023-01-01T06:13:42;53.35;;;18.83;;
52922;SDS011;38796;42.702;23.306;2023-01-01T06:15:40;23.02;;;14.70;;
52922;SDS011;38796;42.702;23.306;2023-01-01T06:17:38;39.47;;;18.70;;
52922;SDS011;38796;42.702;23.306;2023-01-01T06:19:37;32.40;;;18.65;;
52922;SDS011;38796;42.702;23.306;2023-01-01T06:21:35;53.22;;;24.30;;
52922;SDS011;38796;42.702;23.306;2023-01-01T06:23:33;33.92;;;18.85;;
52922;SDS011;38796;42.702;23.306;2023-01-01T06:25:32;31.60;;;18.42;;
52922;SDS011;38796;42.702;23.306;2023-01-01T06:27:33;46.10;;;22.20;;
52922;SDS011;38796;42.702;23.306;2023-01-01T06:29:33;40.47;;;23.73;;
52922;SDS011;38796;42.702;23.306;2023-01-01T06:31:31;29.60;;;17.95;;
52922;SDS011;38796;42.702;23.306;2023-01-01T06:33:36;46.15;;;21.48;;
52922;SDS011;38796;42.702;23.306;2023-01-01T06:35:35;44.90;;;21.15;;
52922;SDS011;38796;42.702;23.306;2023-01-01T06:37:34;43.67;;;23.63;;
52922;SDS011;38796;42.702;23.306;2023-01-01T06:39:32;42.13;;;22.08;;
52922;SDS011;38796;42.702;23.306;2023-01-01T06:41:30;44.65;;;23.23;;
52922;SDS011;38796;42.702;23.306;2023-01-01T06:43:29;53.72;;;21.40;;
52922;SDS011;38796;42.702;23.306;2023-01-01T06:45:31;47.47;;;24.60;;
52922;SDS011;38796;42.702;23.306;2023-01-01T06:47:32;53.42;;;26.42;;
52922;SDS011;38796;42.702;23.306;2023-01-01T06:49:31;40.30;;;21.63;;
52922;SDS011;38796;42.702;23.306;2023-01-01T06:51:30;41.25;;;24.13;;
52922;SDS011;38796;42.702;23.306;2023-01-01T06:53:29;39.85;;;19.05;;
52922;SDS011;38796;42.702;23.306;2023-01-01T06:55:27;49.78;;;20.70;;
52922;SDS011;38796;42.702;23.306;2023-01-01T06:57:25;40.40;;;22.95;;
52922;SDS011;38796;42.702;23.306;2023-01-01T06:59:24;38.25;;;21.33;;
52922;SDS011;38796;42.702;23.306;2023-01-01T07:01:24;51.15;;;23.20;;
52922;SDS011;38796;42.702;23.306;2023-01-01T07:03:23;50.97;;;20.42;;
52922;SDS011;38796;42.702;23.306;2023-01-01T07:05:22;49.90;;;24.15;;
52922;SDS011;38796;42.702;23.306;2023-01-01T07:07:22;39.38;;;20.13;;
52922;SDS011;38796;42.702;23.306;2023-01-01T07:09:21;45.05;;;22.73;;
52922;SDS011;38796;42.702;23.306;2023-01-01T07:11:19;38.78;;;20.45;;
52922;SDS011;38796;42.702;23.306;2023-01-01T07:13:18;46.08;;;19.95;;
52922;SDS011;38796;42.702;23.306;2023-01-01T07:15:16;53.47;;;23.63;;
52922;SDS011;38796;42.702;23.306;2023-01-01T07:17:16;57.50;;;23.95;;
52922;SDS011;38796;42.702;23.306;2023-01-01T07:19:14;49.33;;;24.10;;
52922;SDS011;38796;42.702;23.306;2023-01-01T07:23:35;45.17;;;22.55;;
52922;SDS011;38796;42.702;23.306;2023-01-01T07:25:34;56.30;;;21.30;;
52922;SDS011;38796;42.702;23.306;2023-01-01T07:27:33;49.08;;;26.73;;
52922;SDS011;38796;42.702;23.306;2023-01-01T07:29:31;66.10;;;28.77;;
52922;SDS011;38796;42.702;23.306;2023-01-01T07:31:30;54.13;;;27.45;;
52922;SDS011;38796;42.702;23.306;2023-01-01T07:33:30;51.55;;;27.77;;
52922;SDS011;38796;42.702;23.306;2023-01-01T07:35:28;54.58;;;28.70;;
52922;SDS011;38796;42.702;23.306;2023-01-01T07:37:26;52.55;;;27.08;;
52922;SDS011;38796;42.702;23.306;2023-01-01T07:39:27;44.00;;;25.17;;
52922;SDS011;38796;42.702;23.306;2023-01-01T07:41:25;46.28;;;23.85;;
52922;SDS011;38796;42.702;23.306;2023-01-01T07:43:23;49.95;;;23.88;;
52922;SDS011;38796;42.702;23.306;2023-01-01T07:45:23;52.33;;;22.92;;
52922;SDS011;38796;42.702;23.306;2023-01-01T07:47:22;46.22;;;22.17;;
52922;SDS011;38796;42.702;23.306;2023-01-01T07:49:23;40.08;;;20.17;;
52922;SDS011;38796;42.702;23.306;2023-01-01T07:51:21;52.33;;;21.63;;
52922;SDS011;38796;42.702;23.306;2023-01-01T07:53:20;41.63;;;21.92;;
52922;SDS011;38796;42.702;23.306;2023-01-01T07:55:21;40.83;;;20.77;;
52922;SDS011;38796;42.702;23.306;2023-01-01T07:57:20;37.78;;;19.65;;
52922;SDS011;38796;42.702;23.306;2023-01-01T07:59:25;46.38;;;19.42;;
52922;SDS011;38796;42.702;23.306;2023-01-01T08:01:23;39.45;;;18.50;;
52922;SDS011;38796;42.702;23.306;2023-01-01T08:03:21;40.70;;;21.20;;
52922;SDS011;38796;42.702;23.306;2023-01-01T08:05:21;41.17;;;20.33;;
52922;SDS011;38796;42.702;23.306;2023-01-01T08:07:22;39.60;;;20.85;;
52922;SDS011;38796;42.702;23.306;2023-01-01T08:09:21;45.47;;;21.00;;
52922;SDS011;38796;42.702;23.306;2023-01-01T08:11:19;60.20;;;25.70;;
52922;SDS011;38796;42.702;23.306;2023-01-01T08:13:18;44.38;;;19.35;;
52922;SDS011;38796;42.702;23.306;2023-01-01T08:15:16;62.63;;;23.33;;
52922;SDS011;38796;42.702;23.306;2023-01-01T08:17:15;38.08;;;18.38;;
52922;SDS011;38796;42.702;23.306;2023-01-01T08:19:13;49.17;;;25.33;;
52922;SDS011;38796;42.702;23.306;2023-01-01T08:21:13;44.95;;;20.85;;
52922;SDS011;38796;42.702;23.306;2023-01-01T08:23:11;49.67;;;22.90;;
52922;SDS011;38796;42.702;23.306;2023-01-01T08:25:10;75.40;;;32.97;;
52922;SDS011;38796;42.702;23.306;2023-01-01T08:27:09;79.43;;;28.13;;
52922;SDS011;38796;42.702;23.306;2023-01-01T08:29:09;51.78;;;24.67;;
52922;SDS011;38796;42.702;23.306;2023-01-01T08:31:08;51.83;;;23.92;;
52922;SDS011;38796;42.702;23.306;2023-01-01T08:33:06;51.58;;;21.58;;
52922;SDS011;38796;42.702;23.306;2023-01-01T08:35:05;49.75;;;19.83;;
52922;SDS011;38796;42.702;23.306;2023-01-01T08:37:05;42.60;;;21.33;;
52922;SDS011;38796;42.702;23.306;2023-01-01T08:39:03;48.25;;;19.92;;
52922;SDS011;38796;42.702;23.306;2023-01-01T08:41:02;55.47;;;20.25;;
52922;SDS011;38796;42.702;23.306;2023-01-01T08:43:00;45.50;;;21.02;;
52922;SDS011;38796;42.702;23.306;2023-01-01T08:44:58;48.75;;;23.42;;
52922;SDS011;38796;42.702;23.306;2023-01-01T08:46:56;50.78;;;23.98;;
52922;SDS011;38796;42.702;23.306;2023-01-01T08:48:55;48.42;;;23.10;;
52922;SDS011;38796;42.702;23.306;2023-01-01T08:50:53;53.28;;;21.20;;
52922;SDS011;38796;42.702;23.306;2023-01-01T08:52:54;52.55;;;23.80;;
52922;SDS011;38796;42.702;23.306;2023-01-01T08:54:52;51.05;;;21.30;;
52922;SDS011;38796;42.702;23.306;2023-01-01T08:56:50;55.38;;;22.45;;
52922;SDS011;38796;42.702;23.306;2023-01-01T08:58:51;52.35;;;20.33;;
52922;SDS011;38796;42.702;23.306;2023-01-01T09:00:57;46.63;;;18.13;;
52922;SDS011;38796;42.702;23.306;2023-01-01T09:02:56;30.67;;;15.77;;
52922;SDS011;38796;42.702;23.306;2023-01-01T09:04:54;35.55;;;15.73;;
52922;SDS011;38796;42.702;23.306;2023-01-01T09:06:52;43.13;;;19.48;;
52922;SDS011;38796;42.702;23.306;2023-01-01T09:08:52;38.22;;;16.30;;
52922;SDS011;38796;42.702;23.306;2023-01-01T09:11:00;37.63;;;16.80;;
52922;SDS011;38796;42.702;23.306;2023-01-01T09:13:00;36.95;;;17.27;;
52922;SDS011;38796;42.702;23.306;2023-01-01T09:15:01;43.15;;;17.83;;
52922;SDS011;38796;42.702;23.306;2023-01-01T09:16:59;34.78;;;16.35;;
52922;SDS011;38796;42.702;23.306;2023-01-01T09:18:58;26.55;;;13.20;;
52922;SDS011;38796;42.702;23.306;2023-01-01T09:21:05;45.65;;;16.17;;
52922;SDS011;38796;42.702;23.306;2023-01-01T09:23:06;40.00;;;16.80;;
52922;SDS011;38796;42.702;23.306;2023-01-01T09:25:11;33.40;;;14.23;;
52922;SDS011;38796;42.702;23.306;2023-01-01T09:27:11;24.90;;;12.68;;
52922;SDS011;38796;42.702;23.306;2023-01-01T09:29:09;22.45;;;11.68;;
52922;SDS011;38796;42.702;23.306;2023-01-01T09:31:07;19.90;;;10.93;;
52922;SDS011;38796;42.702;23.306;2023-01-01T09:33:06;20.40;;;10.80;;
52922;SDS011;38796;42.702;23.306;2023-01-01T09:35:07;24.63;;;10.75;;
52922;SDS011;38796;42.702;23.306;2023-01-01T09:37:06;22.17;;;10.23;;
52922;SDS011;38796;42.702;23.306;2023-01-01T09:39:04;23.55;;;9.98;;
52922;SDS011;38796;42.702;23.306;2023-01-01T09:43:13;21.65;;;9.93;;
52922;SDS011;38796;42.702;23.306;2023-01-01T09:45:27;24.60;;;11.93;;
52922;SDS011;38796;42.702;23.306;2023-01-01T09:47:31;24.02;;;11.50;;
52922;SDS011;38796;42.702;23.306;2023-01-01T09:49:37;23.63;;;10.82;;
52922;SDS011;38796;42.702;23.306;2023-01-01T09:51:50;21.65;;;9.52;;
52922;SDS011;38796;42.702;23.306;2023-01-01T09:53:53;23.33;;;10.07;;
52922;SDS011;38796;42.702;23.306;2023-01-01T09:55:58;15.27;;;9.47;;
52922;SDS011;38796;42.702;23.306;2023-01-01T09:57:59;23.33;;;10.47;;
52922;SDS011;38796;42.702;23.306;2023-01-01T09:59:58;18.47;;;8.63;;
52922;SDS011;38796;42.702;23.306;2023-01-01T10:01:58;26.10;;;10.37;;
52922;SDS011;38796;42.702;23.306;2023-01-01T10:04:15;19.47;;;11.03;;
52922;SDS011;38796;42.702;23.306;2023-01-01T10:06:24;20.40;;;9.23;;
52922;SDS011;38796;42.702;23.306;2023-01-01T10:08:33;15.53;;;7.10;;
52922;SDS011;38796;42.702;23.306;2023-01-01T10:10:38;19.43;;;8.87;;
52922;SDS011;38796;42.702;23.306;2023-01-01T10:12:39;20.73;;;7.97;;
52922;SDS011;38796;42.702;23.306;2023-01-01T10:14:50;14.70;;;7.23;;
52922;SDS011;38796;42.702;23.306;2023-01-01T10:16:56;19.50;;;10.10;;
52922;SDS011;38796;42.702;23.306;2023-01-01T10:18:59;28.52;;;10.40;;
52922;SDS011;38796;42.702;23.306;2023-01-01T10:21:04;18.42;;;8.40;;
52922;SDS011;38796;42.702;23.306;2023-01-01T10:25:16;17.48;;;9.00;;
52922;SDS011;38796;42.702;23.306;2023-01-01T10:27:21;24.30;;;9.70;;
52922;SDS011;38796;42.702;23.306;2023-01-01T10:29:26;18.50;;;6.83;;
52922;SDS011;38796;42.702;23.306;2023-01-01T10:31:35;16.80;;;9.17;;
52922;SDS011;38796;42.702;23.306;2023-01-01T10:33:40;20.37;;;9.57;;
52922;SDS011;38796;42.702;23.306;2023-01-01T10:35:45;13.97;;;7.10;;
52922;SDS011;38796;42.702;23.306;2023-01-01T10:37:49;15.13;;;6.87;;
52922;SDS011;38796;42.702;23.306;2023-01-01T10:39:51;17.50;;;7.77;;
52922;SDS011;38796;42.702;23.306;2023-01-01T10:41:55;21.77;;;9.60;;
52922;SDS011;38796;42.702;23.306;2023-01-01T10:43:59;25.57;;;12.63;;
52922;SDS011;38796;42.702;23.306;2023-01-01T10:45:57;44.80;;;18.00;;
52922;SDS011;38796;42.702;23.306;2023-01-01T10:48:11;31.40;;;12.67;;
52922;SDS011;38796;42.702;23.306;2023-01-01T10:50:12;51.20;;;23.77;;
52922;SDS011;38796;42.702;23.306;2023-01-01T10:52:12;26.60;;;13.60;;
52922;SDS011;38796;42.702;23.306;2023-01-01T10:54:23;26.87;;;13.27;;
52922;SDS011;38796;42.702;23.306;2023-01-01T10:56:37;27.75;;;12.15;;
52922;SDS011;38796;42.702;23.306;2023-01-01T10:58:40;33.07;;;14.23;;
52922;SDS011;38796;42.702;23.306;2023-01-01T11:00:40;28.30;;;13.37;;
52922;SDS011;38796;42.702;23.306;2023-01-01T11:02:38;19.30;;;10.77;;
52922;SDS011;38796;42.702;23.306;2023-01-01T11:04:46;39.43;;;16.07;;
52922;SDS011;38796;42.702;23.306;2023-01-01T11:06:57;26.83;;;12.77;;
52922;SDS011;38796;42.702;23.306;2023-01-01T11:11:03;26.57;;;11.13;;
52922;SDS011;38796;42.702;23.306;2023-01-01T11:13:02;29.67;;;14.20;;
52922;SDS011;38796;42.702;23.306;2023-01-01T11:15:21;26.10;;;11.83;;
52922;SDS011;38796;42.702;23.306;2023-01-01T11:17:23;23.60;;;11.40;;
52922;SDS011;38796;42.702;23.306;2023-01-01T11:19:23;22.23;;;11.80;;
52922;SDS011;38796;42.702;23.306;2023-01-01T11:21:28;28.33;;;13.30;;
52922;SDS011;38796;42.702;23.306;2023-01-01T11:23:28;18.00;;;10.83;;
52922;SDS011;38796;42.702;23.306;2023-01-01T11:25:28;17.80;;;9.70;;
52922;SDS011;38796;42.702;23.306;2023-01-01T11:27:28;20.90;;;10.70;;
52922;SDS011;38796;42.702;23.306;2023-01-01T11:29:26;20.63;;;11.10;;
52922;SDS011;38796;42.702;23.306;2023-01-01T11:31:26;29.55;;;11.95;;
52922;SDS011;38796;42.702;23.306;2023-01-01T11:33:26;21.58;;;11.70;;
52922;SDS011;38796;42.702;23.306;2023-01-01T11:35:29;28.25;;;11.63;;
52922;SDS011;38796;42.702;23.306;2023-01-01T11:37:31;27.30;;;12.02;;
52922;SDS011;38796;42.702;23.306;2023-01-01T11:39:34;24.58;;;11.05;;
52922;SDS011;38796;42.702;23.306;2023-01-01T11:41:40;29.40;;;13.35;;
52922;SDS011;38796;42.702;23.306;2023-01-01T11:43:42;39.15;;;18.42;;
52922;SDS011;38796;42.702;23.306;2023-01-01T11:45:42;31.95;;;13.57;;
52922;SDS011;38796;42.702;23.306;2023-01-01T11:47:41;43.33;;;21.30;;
52922;SDS011;38796;42.702;23.306;2023-01-01T11:49:41;30.92;;;17.48;;
52922;SDS011;38796;42.702;23.306;2023-01-01T11:51:42;50.60;;;21.65;;